Time;durP1;ratioP1;P1;durP2;ratioP2;P2;SDS_P1;SDS_P2;PMS_P1;PMS_P2;Temp;Humidity;BMP_temperature;BMP_pressure;BME280_temperature;BME280_humidity;BME280_pressure;Samples;Min_cycle;Max_cycle;Signal;HPM_P1;HPM_P2
2022/05/04 00:00:34;;;;;;;12.47;10.63;;;;;;;13.47;90.65;98062.47;4134927;28;20644;-84
2022/05/04 00:02:37;;;;;;;12.87;11.37;;;;;;;13.47;91.37;98060.69;4139957;28;20634;-84
2022/05/04 00:04:41;;;;;;;12.30;10.70;;;;;;;13.50;92.21;98049.97;4140439;28;20653;-85
2022/05/04 00:06:44;;;;;;;17.67;11.50;;;;;;;13.54;91.75;98050.53;4141457;28;21250;-84
2022/05/04 00:08:47;;;;;;;11.93;10.63;;;;;;;13.56;92.25;98043.38;4141262;28;21356;-84
2022/05/04 00:10:52;;;;;;;12.60;11.30;;;;;;;13.58;92.19;98049.34;4142200;28;20636;-84
2022/05/04 00:12:55;;;;;;;13.30;11.00;;;;;;;13.60;92.17;98050.06;4133961;28;20630;-84
2022/05/04 00:14:58;;;;;;;14.77;11.83;;;;;;;13.55;91.35;98044.34;4140023;28;20984;-84
2022/05/04 00:17:02;;;;;;;11.07;9.90;;;;;;;13.48;91.07;98051.03;4120866;28;20651;-85
2022/05/04 00:19:07;;;;;;;12.43;10.77;;;;;;;13.49;91.28;98043.06;4142261;28;21233;-84
2022/05/04 00:21:10;;;;;;;14.23;12.00;;;;;;;13.46;90.85;98045.09;4143249;28;20636;-84
2022/05/04 00:23:14;;;;;;;12.70;11.40;;;;;;;13.45;92.16;98046.03;4129254;28;20653;-84
2022/05/04 00:25:17;;;;;;;12.50;10.93;;;;;;;13.44;92.06;98047.00;4135699;28;20649;-84
2022/05/04 00:27:21;;;;;;;12.47;10.70;;;;;;;13.44;91.20;98052.22;4136635;28;20747;-84
2022/05/04 00:29:25;;;;;;;13.10;10.33;;;;;;;13.41;91.67;98057.72;4144396;28;20631;-85
2022/05/04 00:31:28;;;;;;;15.33;10.73;;;;;;;13.39;92.21;98055.22;4135653;28;20636;-84
2022/05/04 00:33:32;;;;;;;13.43;12.03;;;;;;;13.39;93.16;98049.16;4153551;28;20979;-85
2022/05/04 00:35:35;;;;;;;13.07;11.30;;;;;;;13.36;92.45;98046.78;4131816;28;20621;-84
2022/05/04 00:37:39;;;;;;;16.30;12.00;;;;;;;13.36;92.83;98042.34;4138085;28;20661;-85
2022/05/04 00:39:42;;;;;;;11.83;10.63;;;;;;;13.33;91.82;98042.59;4139460;28;20636;-85
2022/05/04 00:41:45;;;;;;;11.40;10.10;;;;;;;13.30;92.75;98042.84;4126472;28;20640;-84
2022/05/04 00:43:52;;;;;;;12.50;11.20;;;;;;;13.28;91.38;98041.31;4142428;28;20633;-84
2022/05/04 00:45:56;;;;;;;16.40;11.17;;;;;;;13.25;92.58;98038.94;4134303;28;20644;-84
2022/05/04 00:47:59;;;;;;;14.00;11.13;;;;;;;13.23;91.78;98040.88;4136918;28;20633;-84
2022/05/04 00:50:04;;;;;;;14.90;12.10;;;;;;;13.22;93.08;98037.41;4152923;28;20707;-84
2022/05/04 00:52:08;;;;;;;13.10;11.50;;;;;;;13.21;92.04;98035.75;4151482;28;21050;-84
2022/05/04 00:54:12;;;;;;;13.60;11.80;;;;;;;13.19;92.43;98034.19;4138814;28;20672;-84
2022/05/04 00:56:15;;;;;;;12.20;11.00;;;;;;;13.16;91.81;98039.69;4135016;28;20645;-84
2022/05/04 01:00:40;;;;;;;13.03;11.60;;;;;;;13.10;91.77;98037.53;4137048;28;20721;-84
2022/05/04 01:02:43;;;;;;;14.67;13.07;;;;;;;13.10;91.91;98032.31;4137334;28;20640;-84
2022/05/04 01:04:47;;;;;;;21.00;12.33;;;;;;;13.11;92.83;98031.38;4132666;28;20644;-84
2022/05/04 01:06:50;;;;;;;15.97;12.90;;;;;;;13.12;92.68;98037.44;4150760;28;20636;-84
2022/05/04 01:08:54;;;;;;;17.60;12.03;;;;;;;13.11;93.79;98035.75;4119784;28;20646;-84
2022/05/04 01:10:57;;;;;;;16.30;13.30;;;;;;;13.11;93.28;98031.38;4138453;28;20745;-84
2022/05/04 01:13:00;;;;;;;14.37;12.87;;;;;;;13.10;93.92;98039.34;4139785;28;21227;-84
2022/05/04 01:15:04;;;;;;;18.53;13.17;;;;;;;13.08;92.62;98036.00;4151883;28;20639;-84
2022/05/04 01:17:09;;;;;;;14.77;12.70;;;;;;;13.08;94.01;98039.47;4143277;28;21288;-84
2022/05/04 01:19:13;;;;;;;14.20;12.70;;;;;;;13.06;92.68;98036.13;4134178;28;20779;-84
2022/05/04 01:21:16;;;;;;;14.87;12.33;;;;;;;13.06;93.92;98035.28;4134759;28;21287;-84
2022/05/04 01:23:21;;;;;;;13.70;11.63;;;;;;;13.02;94.07;98032.09;4141401;28;20705;-84
2022/05/04 01:25:24;;;;;;;13.40;12.00;;;;;;;13.00;93.13;98047.06;4133221;28;20649;-85
2022/05/04 01:27:28;;;;;;;15.40;12.37;;;;;;;12.97;92.44;98044.69;4142773;28;20619;-84
2022/05/04 01:29:31;;;;;;;13.70;12.30;;;;;;;12.93;92.39;98043.28;4142898;28;20635;-84
2022/05/04 01:31:34;;;;;;;13.77;12.37;;;;;;;12.94;94.04;98036.25;4137617;28;21184;-84
2022/05/04 01:33:38;;;;;;;14.73;12.60;;;;;;;12.93;94.02;98042.44;4150269;28;20704;-84
2022/05/04 01:35:41;;;;;;;15.00;12.70;;;;;;;12.91;92.34;98046.97;4140943;28;20643;-85
2022/05/04 01:37:45;;;;;;;15.20;12.00;;;;;;;12.88;94.15;98047.19;4135898;28;20664;-85
2022/05/04 01:39:49;;;;;;;13.27;11.90;;;;;;;12.86;93.00;98042.09;4135060;28;20639;-84
2022/05/04 01:42:09;;;;;;;13.13;11.80;;;;;;;12.85;92.70;98045.69;4135390;28;20722;-84
2022/05/04 01:44:12;;;;;;;14.33;12.13;;;;;;;12.86;93.55;98046.50;4119747;28;20632;-84
2022/05/04 01:46:15;;;;;;;14.20;12.50;;;;;;;12.84;93.52;98045.78;4136289;28;21254;-84
2022/05/04 01:48:19;;;;;;;13.90;12.17;;;;;;;12.86;92.42;98054.34;4140548;28;20623;-84
2022/05/04 01:50:22;;;;;;;13.53;12.17;;;;;;;12.86;93.22;98054.34;4144917;28;20623;-84
2022/05/04 01:52:26;;;;;;;14.10;11.20;;;;;;;12.83;94.00;98054.59;4142518;28;20625;-84
2022/05/04 01:54:30;;;;;;;14.93;11.93;;;;;;;12.82;93.65;98050.25;4134427;28;20700;-84
2022/05/04 01:56:35;;;;;;;17.03;12.67;;;;;;;12.79;92.27;98053.13;4140838;28;20695;-85
2022/05/04 01:58:38;;;;;;;13.80;11.60;;;;;;;12.75;92.34;98055.16;4136413;28;20655;-84
2022/05/04 02:00:41;;;;;;;14.70;13.10;;;;;;;12.73;93.40;98054.44;4137195;28;20641;-84
2022/05/04 02:02:45;;;;;;;13.00;11.70;;;;;;;12.71;92.78;98058.13;4140798;28;20634;-84
2022/05/04 02:04:49;;;;;;;14.17;12.70;;;;;;;12.70;93.42;98059.91;4134628;28;20695;-84
2022/05/04 02:06:52;;;;;;;13.70;12.30;;;;;;;12.70;93.68;98059.91;4143144;28;21015;-84
2022/05/04 02:08:55;;;;;;;16.80;12.07;;;;;;;12.67;93.19;98053.25;4126085;28;20655;-84
2022/05/04 02:10:58;;;;;;;14.97;12.80;;;;;;;12.65;92.83;98057.78;4138830;28;21012;-84
2022/05/04 02:13:03;;;;;;;14.23;12.73;;;;;;;12.66;93.72;98048.94;4123218;28;20719;-84
2022/05/04 02:15:11;;;;;;;14.20;11.87;;;;;;;12.69;93.41;98055.63;4139224;28;21219;-83
2022/05/04 02:17:14;;;;;;;14.03;12.60;;;;;;;12.70;93.86;98045.97;4140293;28;21244;-84
2022/05/04 02:19:17;;;;;;;16.30;12.50;;;;;;;12.72;94.10;98052.78;4143023;28;20693;-84
2022/05/04 02:21:20;;;;;;;13.43;12.03;;;;;;;12.72;93.66;98055.38;4137943;28;20651;-84
2022/05/04 02:23:24;;;;;;;15.37;12.43;;;;;;;12.70;92.70;98057.31;4143732;28;20635;-84
2022/05/04 02:25:27;;;;;;;14.50;12.10;;;;;;;12.68;93.71;98049.69;4141421;28;20663;-84
2022/05/04 02:27:30;;;;;;;13.53;12.13;;;;;;;12.66;93.47;98054.19;4141300;28;20646;-84
2022/05/04 02:29:35;;;;;;;12.50;11.20;;;;;;;12.64;91.91;98046.44;4139464;28;20615;-84
2022/05/04 02:31:38;;;;;;;12.00;10.90;;;;;;;12.61;93.62;98046.69;4142922;28;21285;-84
2022/05/04 02:33:42;;;;;;;14.60;11.70;;;;;;;12.57;92.38;98044.41;4138004;28;20638;-84
2022/05/04 02:38:05;;;;;;;14.40;11.33;;;;;;;12.50;93.66;98054.53;4139895;28;20735;-84
2022/05/04 02:40:10;;;;;;;14.30;11.90;;;;;;;12.48;92.67;98055.59;4142615;28;20619;-84
2022/05/04 02:42:13;;;;;;;15.07;13.57;;;;;;;12.50;92.25;98058.94;4146562;28;20690;-85
2022/05/04 02:44:22;;;;;;;13.57;11.80;;;;;;;12.48;92.80;98056.44;4145496;28;20634;-85
2022/05/04 02:46:30;;;;;;;13.60;12.03;;;;;;;12.46;93.15;98055.75;4143516;28;20670;-84
2022/05/04 02:48:33;;;;;;;13.43;12.03;;;;;;;12.45;94.24;98053.25;4122886;28;20699;-84
2022/05/04 02:50:36;;;;;;;14.03;12.47;;;;;;;12.43;93.34;98053.34;4133373;28;21082;-84
2022/05/04 02:52:39;;;;;;;15.73;12.47;;;;;;;12.46;94.73;98052.28;4145828;28;20654;-85
2022/05/04 02:54:42;;;;;;;13.37;12.03;;;;;;;12.49;94.82;98052.84;4144965;28;20653;-84
2022/05/04 02:56:46;;;;;;;15.10;12.70;;;;;;;12.53;94.96;98050.88;4155530;28;20633;-85
2022/05/04 02:58:53;;;;;;;18.10;12.47;;;;;;;12.54;93.83;98053.34;4138888;28;21253;-84
2022/05/04 03:00:56;;;;;;;13.77;12.37;;;;;;;12.53;94.13;98056.09;4142570;28;20695;-85
2022/05/04 03:03:00;;;;;;;13.00;11.67;;;;;;;12.46;93.06;98058.34;4135386;28;20688;-84
2022/05/04 03:05:05;;;;;;;15.50;11.50;;;;;;;12.39;93.20;98059.75;4154991;28;21080;-84
2022/05/04 03:07:08;;;;;;;13.93;11.70;;;;;;;12.36;94.12;98057.38;4136450;28;20625;-84
2022/05/04 03:09:12;;;;;;;12.30;11.20;;;;;;;12.34;92.66;98054.06;4140387;28;20647;-84
2022/05/04 03:13:36;;;;;;;15.83;12.73;;;;;;;12.39;93.64;98053.72;4136695;28;21050;-84
2022/05/04 03:15:39;;;;;;;14.23;12.80;;;;;;;12.38;93.46;98050.25;4141028;28;20635;-84
2022/05/04 03:17:43;;;;;;;14.90;12.77;;;;;;;12.41;93.84;98046.56;4141649;28;20636;-84
2022/05/04 03:19:47;;;;;;;14.50;11.97;;;;;;;12.40;94.09;98048.34;4142822;28;20658;-84
2022/05/04 03:21:51;;;;;;;13.00;11.60;;;;;;;12.38;94.15;98046.78;4143902;28;20670;-84
2022/05/04 03:23:54;;;;;;;17.93;12.00;;;;;;;12.38;93.84;98038.94;4139964;28;20979;-84
2022/05/04 03:25:58;;;;;;;14.97;11.80;;;;;;;12.38;95.03;98041.56;4126689;28;20687;-84
2022/05/04 03:28:01;;;;;;;13.10;11.80;;;;;;;12.38;95.23;98046.78;4149050;28;20692;-84
2022/05/04 03:30:05;;;;;;;14.87;12.40;;;;;;;12.40;92.90;98050.13;4137080;28;20627;-84
2022/05/04 03:32:09;;;;;;;15.87;12.70;;;;;;;12.42;94.21;98050.84;4146222;28;21193;-84
2022/05/04 03:34:12;;;;;;;17.47;12.63;;;;;;;12.46;94.85;98047.03;4145591;28;20910;-84
2022/05/04 03:36:17;;;;;;;13.43;12.03;;;;;;;12.44;93.95;98038.47;4138635;28;20737;-84
2022/05/04 03:38:20;;;;;;;14.53;13.03;;;;;;;12.42;94.03;98050.84;4138855;28;20711;-84
2022/05/04 03:40:24;;;;;;;17.50;12.20;;;;;;;12.38;93.77;98049.41;4138815;28;20667;-84
2022/05/04 03:42:27;;;;;;;15.37;13.07;;;;;;;12.35;93.43;98050.47;4138396;28;20628;-84
2022/05/04 03:44:30;;;;;;;13.43;11.83;;;;;;;12.36;94.13;98049.53;4144968;28;20635;-84
2022/05/04 03:46:43;;;;;;;16.03;12.63;;;;;;;12.38;95.42;98049.41;4141227;28;20755;-84
2022/05/04 03:48:47;;;;;;;14.07;12.27;;;;;;;12.38;93.55;98046.78;4136056;28;21263;-85
2022/05/04 03:50:51;;;;;;;14.83;12.80;;;;;;;12.38;94.50;98039.78;4138517;28;20627;-84
2022/05/04 03:52:55;;;;;;;14.87;13.33;;;;;;;12.38;93.46;98045.00;4133903;28;20644;-84
2022/05/04 03:54:59;;;;;;;13.83;12.40;;;;;;;12.38;95.05;98047.63;4136390;28;20789;-84
2022/05/04 03:57:02;;;;;;;14.30;12.50;;;;;;;12.37;93.75;98050.34;4141702;28;21154;-84
2022/05/04 03:59:06;;;;;;;15.00;13.17;;;;;;;12.38;93.77;98046.78;4142720;28;20658;-84
2022/05/04 04:01:09;;;;;;;14.00;12.53;;;;;;;12.37;95.21;98050.34;4133719;28;21195;-83
2022/05/04 04:03:13;;;;;;;13.40;11.80;;;;;;;12.37;95.56;98045.97;4143388;28;20759;-84
2022/05/04 04:05:17;;;;;;;14.13;12.63;;;;;;;12.37;94.47;98043.34;4141500;28;21050;-84
2022/05/04 04:07:20;;;;;;;14.37;12.80;;;;;;;12.37;94.06;98047.75;4134354;28;20666;-84
2022/05/04 04:09:24;;;;;;;14.20;12.80;;;;;;;12.37;94.05;98048.59;4138369;28;21194;-84
2022/05/04 04:11:29;;;;;;;13.37;12.03;;;;;;;12.35;93.28;98042.63;4135690;28;20637;-84
2022/05/04 04:13:33;;;;;;;16.53;12.27;;;;;;;12.36;94.43;98052.16;4137592;28;20636;-83
2022/05/04 04:15:36;;;;;;;13.83;12.47;;;;;;;12.36;94.60;98053.94;4132791;28;20643;-84
2022/05/04 04:17:39;;;;;;;14.70;12.77;;;;;;;12.36;95.25;98054.75;4136322;28;20727;-84
2022/05/04 04:21:50;;;;;;;15.10;13.50;;;;;;;12.38;94.56;98057.25;4138276;28;21016;-84
2022/05/04 04:22:11;;;;;;;14.23;12.83;;;;;;;12.39;94.60;98056.31;4132725;28;21055;-84
2022/05/04 04:24:15;;;;;;;15.07;13.47;;;;;;;12.38;93.16;98055.47;4149772;28;20789;-84
2022/05/04 04:26:19;;;;;;;17.43;13.37;;;;;;;12.39;93.72;98058.94;4141375;28;21207;-84
2022/05/04 04:28:23;;;;;;;13.93;12.40;;;;;;;12.40;94.47;98058.81;4134111;28;21046;-84
2022/05/04 04:30:26;;;;;;;15.77;14.17;;;;;;;12.40;94.45;98063.19;4135576;28;20639;-84
2022/05/04 04:32:29;;;;;;;14.27;12.87;;;;;;;12.41;94.74;98057.03;4149290;28;20688;-84
2022/05/04 04:34:33;;;;;;;17.83;13.40;;;;;;;12.40;94.78;98058.81;4142007;28;21080;-84
2022/05/04 04:36:36;;;;;;;16.07;14.30;;;;;;;12.43;94.08;98068.19;4143422;28;21102;-84
2022/05/04 04:38:39;;;;;;;14.93;13.50;;;;;;;12.41;95.00;98065.69;4135356;28;21071;-86
2022/05/04 04:40:43;;;;;;;14.40;13.00;;;;;;;12.44;93.63;98064.63;4118924;28;20653;-83
2022/05/04 04:42:47;;;;;;;15.50;13.80;;;;;;;12.44;94.92;98062.03;4122792;28;20652;-83
2022/05/04 04:44:50;;;;;;;19.33;13.27;;;;;;;12.45;95.99;98061.91;4140614;28;20639;-83
2022/05/04 04:46:54;;;;;;;15.40;13.80;;;;;;;12.46;94.93;98063.59;4135774;28;21076;-84
2022/05/04 04:48:58;;;;;;;17.13;13.50;;;;;;;12.47;93.94;98067.84;4140273;28;20723;-85
2022/05/04 04:51:01;;;;;;;15.30;13.77;;;;;;;12.51;94.95;98065.81;4143513;28;20726;-85
2022/05/04 04:53:04;;;;;;;15.00;13.40;;;;;;;12.53;94.20;98069.16;4137665;28;21337;-85
2022/05/04 04:55:09;;;;;;;17.03;14.23;;;;;;;12.56;95.86;98082.03;4121424;28;20657;-86
2022/05/04 04:57:12;;;;;;;17.30;15.50;;;;;;;12.58;94.43;98073.09;4136951;28;20737;-86
2022/05/04 04:59:16;;;;;;;17.30;15.50;;;;;;;12.59;94.34;98074.75;4150080;28;20635;-86
2022/05/04 05:01:19;;;;;;;19.47;16.50;;;;;;;12.61;95.18;98079.88;4140631;28;21194;-86
2022/05/04 05:03:23;;;;;;;22.90;16.97;;;;;;;12.65;93.61;98083.94;4151418;28;20644;-86
2022/05/04 05:05:26;;;;;;;18.97;16.40;;;;;;;12.67;93.94;98082.84;4135264;28;20928;-86
2022/05/04 05:07:29;;;;;;;21.63;17.73;;;;;;;12.68;93.79;98086.31;4136959;28;20670;-86
2022/05/04 05:09:32;;;;;;;21.07;18.77;;;;;;;12.68;93.82;98081.91;4135091;28;20680;-84
2022/05/04 05:11:36;;;;;;;20.73;17.87;;;;;;;12.70;94.05;98087.84;4137258;28;20634;-84
2022/05/04 05:16:10;;;;;;;23.50;21.00;;;;;;;12.70;95.49;98093.94;4133828;28;20632;-86
2022/05/04 05:18:13;;;;;;;18.67;16.77;;;;;;;12.71;93.70;98090.34;4117322;28;20643;-86
2022/05/04 05:20:17;;;;;;;19.13;17.13;;;;;;;12.73;94.63;98091.09;4136088;28;20674;-85
2022/05/04 05:22:20;;;;;;;19.80;17.03;;;;;;;12.74;94.95;98105.00;4139017;28;20666;-83
2022/05/04 05:24:24;;;;;;;18.07;16.20;;;;;;;12.76;93.78;98084.75;4141268;28;20658;-85
2022/05/04 05:26:27;;;;;;;17.80;15.87;;;;;;;12.77;95.18;98097.72;4136286;28;20643;-85
2022/05/04 05:28:30;;;;;;;16.90;15.13;;;;;;;12.80;94.12;98087.03;4134299;28;20640;-85
2022/05/04 05:30:34;;;;;;;19.80;16.47;;;;;;;12.82;94.84;98092.13;4135894;28;21270;-86
2022/05/04 05:32:38;;;;;;;17.93;15.87;;;;;;;12.83;94.71;98091.22;4136501;28;20638;-86
2022/05/04 05:34:41;;;;;;;17.60;15.80;;;;;;;12.84;93.78;98098.16;4132581;28;20646;-85
2022/05/04 05:36:46;;;;;;;18.33;16.43;;;;;;;12.88;93.72;98102.16;4125202;28;20632;-85
2022/05/04 05:38:50;;;;;;;17.10;15.30;;;;;;;12.88;94.77;98100.38;4139997;28;20624;-85
2022/05/04 05:40:53;;;;;;;17.10;15.27;;;;;;;12.91;94.10;98104.56;4131997;28;21241;-85
2022/05/04 05:42:56;;;;;;;22.73;16.30;;;;;;;12.93;94.05;98094.78;4139243;28;20647;-86
2022/05/04 05:45:00;;;;;;;17.30;15.50;;;;;;;12.98;93.96;98100.53;4133237;28;20750;-86
2022/05/04 05:47:04;;;;;;;18.83;16.37;;;;;;;12.99;94.93;98108.25;4136139;28;20678;-84
2022/05/04 05:49:09;;;;;;;17.70;15.80;;;;;;;13.03;95.27;98093.97;4140598;28;20623;-83
2022/05/04 05:51:12;;;;;;;16.90;15.20;;;;;;;13.07;93.90;98108.47;4125712;28;20640;-83
2022/05/04 05:53:16;;;;;;;19.50;15.60;;;;;;;13.11;94.46;98094.22;4141642;28;21080;-83
2022/05/04 05:55:19;;;;;;;17.80;15.33;;;;;;;13.14;94.52;98099.22;4141904;28;20670;-83
2022/05/04 05:57:23;;;;;;;18.33;16.27;;;;;;;13.16;93.45;98105.16;4125010;28;20639;-83
2022/05/04 05:59:27;;;;;;;17.23;15.43;;;;;;;13.20;94.73;98106.59;4133733;28;21217;-83
2022/05/04 06:01:30;;;;;;;18.23;14.97;;;;;;;13.23;95.43;98106.34;4138883;28;20739;-82
2022/05/04 06:03:34;;;;;;;19.50;16.27;;;;;;;13.27;94.54;98105.97;4140267;28;20664;-83
2022/05/04 06:06:01;;;;;;;17.73;15.53;;;;;;;13.31;94.18;98110.00;4133001;28;20642;-82
2022/05/04 06:08:04;;;;;;;17.93;15.80;;;;;;;13.37;93.87;98106.91;4138772;28;20696;-83
2022/05/04 06:10:09;;;;;;;18.27;16.37;;;;;;;13.41;94.04;98103.09;4135231;28;20693;-83
2022/05/04 06:12:12;;;;;;;18.37;16.47;;;;;;;13.43;94.24;98106.44;4119670;28;20756;-83
2022/05/04 06:14:15;;;;;;;17.60;15.80;;;;;;;13.47;93.66;98100.00;4136586;28;20638;-82
2022/05/04 06:16:19;;;;;;;17.33;15.53;;;;;;;13.53;94.08;98101.28;4120479;28;20640;-83
2022/05/04 06:18:22;;;;;;;18.17;16.03;;;;;;;13.59;94.47;98101.66;4141843;28;20642;-82
2022/05/04 06:20:26;;;;;;;18.43;16.27;;;;;;;13.64;93.58;98109.97;4134981;28;21211;-82
2022/05/04 06:22:31;;;;;;;17.57;15.67;;;;;;;13.71;94.21;98109.34;4137608;28;20646;-84
2022/05/04 06:24:34;;;;;;;20.67;16.97;;;;;;;13.81;94.10;98117.28;4136962;28;20639;-85
2022/05/04 06:26:38;;;;;;;22.87;17.40;;;;;;;13.88;93.99;98111.44;4150595;28;20695;-85
2022/05/04 06:28:41;;;;;;;19.47;17.40;;;;;;;13.96;94.41;98110.81;4131187;28;20720;-84
2022/05/04 06:35:27;;;;;;;19.20;17.20;;;;;;;14.19;93.74;98113.22;4133197;28;20631;-84
2022/05/04 06:37:32;;;;;;;18.77;16.70;;;;;;;14.26;92.89;98114.41;4143091;28;20649;-84
2022/05/04 06:39:35;;;;;;;18.63;16.53;;;;;;;14.35;93.52;98119.72;4137790;28;20641;-84
2022/05/04 06:41:40;;;;;;;17.60;15.90;;;;;;;14.46;92.55;98119.66;4121274;28;20712;-83
2022/05/04 06:43:43;;;;;;;19.17;17.27;;;;;;;14.57;93.35;98121.38;4134343;28;20680;-84
2022/05/04 06:45:46;;;;;;;17.60;15.60;;;;;;;14.66;92.41;98127.53;4135920;28;20637;-84
2022/05/04 06:47:50;;;;;;;20.60;17.73;;;;;;;14.77;93.68;98131.88;4140183;28;20625;-83
2022/05/04 06:49:53;;;;;;;18.80;17.00;;;;;;;14.87;92.14;98133.59;4141920;28;20703;-83
2022/05/04 06:51:57;;;;;;;19.23;16.60;;;;;;;14.94;91.64;98124.22;4143324;28;20627;-83
2022/05/04 06:54:02;;;;;;;19.23;17.23;;;;;;;15.03;91.98;98133.97;4135190;28;20635;-84
2022/05/04 06:56:25;;;;;;;19.17;17.17;;;;;;;15.11;91.42;98131.53;4137005;28;20705;-84
2022/05/04 06:58:29;;;;;;;18.87;17.03;;;;;;;15.17;90.66;98125.78;4139727;28;20640;-82
2022/05/04 07:00:32;;;;;;;19.60;17.23;;;;;;;15.21;91.50;98127.97;4153181;28;20982;-84
2022/05/04 07:02:35;;;;;;;18.57;16.67;;;;;;;15.25;92.17;98123.31;4146026;28;20668;-84
2022/05/04 07:04:39;;;;;;;17.50;15.70;;;;;;;15.31;92.58;98128.03;4138027;28;20679;-86
2022/05/04 07:06:42;;;;;;;19.00;17.10;;;;;;;15.36;90.67;98126.66;4137757;28;21089;-83
2022/05/04 07:08:45;;;;;;;19.10;17.07;;;;;;;15.44;91.59;98128.63;4129803;28;20642;-83
2022/05/04 07:10:50;;;;;;;18.87;17.03;;;;;;;15.52;91.22;98126.19;4139625;28;20650;-83
2022/05/04 07:12:54;;;;;;;21.50;16.73;;;;;;;15.57;90.37;98123.03;4142835;28;20650;-82
2022/05/04 07:14:58;;;;;;;19.20;16.57;;;;;;;15.63;90.96;98124.25;4141600;28;20647;-83
2022/05/04 07:17:02;;;;;;;19.23;17.27;;;;;;;15.68;92.12;98128.16;4141812;28;20724;-83
2022/05/04 07:19:05;;;;;;;18.63;16.80;;;;;;;15.74;92.75;98135.50;4137751;28;20668;-83
2022/05/04 07:21:09;;;;;;;18.33;16.43;;;;;;;15.81;91.57;98127.91;4130025;28;20657;-83
2022/05/04 07:23:12;;;;;;;18.23;16.37;;;;;;;15.93;90.49;98134.72;4135800;28;20704;-83
2022/05/04 07:25:16;;;;;;;17.63;15.80;;;;;;;16.07;91.24;98140.38;4138201;28;20656;-84
2022/05/04 07:27:20;;;;;;;19.67;17.10;;;;;;;16.28;90.96;98139.34;4135817;28;20998;-84
2022/05/04 07:29:24;;;;;;;19.27;17.27;;;;;;;16.51;90.22;98149.44;4134453;28;20635;-82
2022/05/04 07:31:27;;;;;;;18.43;16.47;;;;;;;16.85;88.88;98144.53;4140568;28;20716;-82
2022/05/04 07:33:31;;;;;;;18.57;16.47;;;;;;;17.13;89.03;98140.03;4140199;28;20630;-82
2022/05/04 07:35:34;;;;;;;18.30;16.40;;;;;;;17.38;87.86;98142.06;4139818;28;20646;-82
2022/05/04 07:37:37;;;;;;;19.10;16.53;;;;;;;17.67;86.15;98138.31;4128618;28;21301;-83
2022/05/04 07:44:25;;;;;;;18.03;14.50;;;;;;;18.57;82.27;98154.78;4129432;28;20696;-84
2022/05/04 07:46:28;;;;;;;15.57;14.10;;;;;;;18.44;81.27;98148.22;4137586;28;20626;-84
2022/05/04 07:48:32;;;;;;;16.27;14.57;;;;;;;18.35;82.57;98154.41;4135954;28;21201;-84
2022/05/04 07:50:35;;;;;;;15.77;14.07;;;;;;;18.28;81.60;98147.22;4145786;28;20646;-84
2022/05/04 07:52:39;;;;;;;16.70;15.00;;;;;;;18.32;82.37;98148.59;4138260;28;20643;-84
2022/05/04 07:54:42;;;;;;;15.30;13.70;;;;;;;18.39;82.42;98149.63;4127372;28;20705;-84
2022/05/04 07:56:46;;;;;;;14.40;12.83;;;;;;;18.45;78.31;98150.72;4136092;28;20638;-84
2022/05/04 07:58:49;;;;;;;15.07;13.57;;;;;;;18.54;80.22;98149.81;4139308;28;20676;-85
2022/05/04 08:05:35;;;;;;;15.13;13.47;;;;;;;18.48;80.18;98155.69;4140366;28;20629;-84
2022/05/04 08:07:38;;;;;;;17.63;13.30;;;;;;;18.49;79.85;98156.50;4124639;28;21238;-85
2022/05/04 08:09:42;;;;;;;14.17;12.77;;;;;;;18.46;78.96;98152.38;4135971;28;20993;-83
2022/05/04 08:11:45;;;;;;;13.60;12.30;;;;;;;18.48;79.31;98158.34;4132603;28;20631;-84
2022/05/04 08:13:48;;;;;;;15.37;13.77;;;;;;;18.51;78.79;98157.22;4145028;28;20727;-85
2022/05/04 08:15:53;;;;;;;14.40;13.00;;;;;;;18.53;79.73;98163.16;4142786;28;20646;-85
2022/05/04 08:17:57;;;;;;;14.53;13.13;;;;;;;18.52;79.25;98172.91;4137619;28;20659;-85
2022/05/04 08:20:00;;;;;;;15.13;13.43;;;;;;;18.50;79.55;98169.56;4135378;28;20686;-84
2022/05/04 08:22:05;;;;;;;14.47;13.07;;;;;;;18.44;78.88;98166.72;4138116;28;20734;-87
2022/05/04 08:24:09;;;;;;;14.97;13.33;;;;;;;18.41;79.17;98165.19;4138488;28;20639;-86
2022/05/04 08:26:18;;;;;;;14.93;13.47;;;;;;;18.36;79.07;98168.44;4137556;28;20631;-86
2022/05/04 08:28:21;;;;;;;16.27;14.60;;;;;;;18.28;78.32;98166.56;4143059;28;20673;-87
2022/05/04 08:30:25;;;;;;;16.00;14.23;;;;;;;18.27;78.12;98169.38;4123653;28;20736;-87
2022/05/04 08:32:30;;;;;;;15.60;14.10;;;;;;;18.22;77.88;98168.97;4135789;28;20622;-86
2022/05/04 08:34:33;;;;;;;15.43;14.03;;;;;;;18.23;79.46;98173.28;4136484;28;20723;-86
2022/05/04 08:36:37;;;;;;;15.47;13.87;;;;;;;18.24;80.08;98172.31;4134864;28;20666;-90
2022/05/04 08:38:42;;;;;;;15.83;14.27;;;;;;;18.23;80.29;98170.63;4138972;28;21091;-87
2022/05/04 08:40:45;;;;;;;16.83;15.03;;;;;;;18.22;79.78;98174.25;4146215;28;20700;-87
2022/05/04 08:42:49;;;;;;;18.40;16.60;;;;;;;18.17;79.56;98182.59;4143410;28;20749;-87
2022/05/04 08:44:55;;;;;;;18.17;16.40;;;;;;;18.09;80.17;98179.84;4128299;28;20715;-88
2022/05/04 08:47:00;;;;;;;17.07;15.37;;;;;;;18.02;81.02;98177.97;4125594;28;20638;-86
2022/05/04 08:49:05;;;;;;;18.17;15.63;;;;;;;18.02;81.17;98176.13;4135620;28;20637;-87
2022/05/04 08:51:10;;;;;;;17.27;15.63;;;;;;;18.06;81.18;98174.06;4125576;28;20643;-87
2022/05/04 08:53:14;;;;;;;19.33;17.43;;;;;;;18.08;81.35;98172.09;4127201;28;20647;-86
2022/05/04 08:55:17;;;;;;;18.67;16.87;;;;;;;18.09;80.69;98171.13;4136458;28;21113;-87
2022/05/04 08:57:21;;;;;;;20.00;18.00;;;;;;;18.09;81.83;98173.75;4124061;28;20658;-86
2022/05/04 08:59:24;;;;;;;18.37;16.33;;;;;;;18.14;81.90;98171.53;4143661;28;20661;-86
2022/05/04 09:01:27;;;;;;;18.30;16.40;;;;;;;18.17;81.43;98173.88;4135340;28;20643;-87
2022/05/04 09:03:32;;;;;;;18.60;16.80;;;;;;;18.25;82.98;98169.50;4134544;28;20724;-87
2022/05/04 09:05:41;;;;;;;18.13;16.37;;;;;;;18.36;82.60;98169.28;4127273;28;21218;-86
2022/05/04 09:07:45;;;;;;;18.83;17.03;;;;;;;18.57;84.50;98170.63;4121588;28;20722;-87
2022/05/04 09:09:52;;;;;;;19.17;17.17;;;;;;;18.85;82.08;98169.53;4118671;28;20631;-87
2022/05/04 09:11:56;;;;;;;17.07;15.40;;;;;;;19.21;85.35;98171.16;4132389;28;20642;-87
2022/05/04 09:14:00;;;;;;;19.43;17.37;;;;;;;19.44;81.56;98163.38;4137736;28;20635;-83
2022/05/04 09:16:04;;;;;;;17.53;15.80;;;;;;;19.59;79.83;98172.38;4134342;28;20623;-83
2022/05/04 09:18:09;;;;;;;17.50;15.90;;;;;;;19.76;78.14;98160.03;4148393;28;20638;-84
2022/05/04 09:22:35;;;;;;;19.43;17.63;;;;;;;20.37;81.04;98172.81;4147670;28;20666;-83
2022/05/04 09:24:43;;;;;;;18.92;17.23;;;;;;;20.47;80.32;98176.97;4138708;28;20789;-83
2022/05/04 09:26:48;;;;;;;19.48;17.58;;;;;;;20.53;80.30;98171.03;4135734;28;20844;-84
2022/05/04 09:28:57;;;;;;;18.67;16.80;;;;;;;20.51;78.84;98172.19;4137212;28;20283;-84
2022/05/04 09:31:06;;;;;;;18.70;16.90;;;;;;;20.53;79.72;98180.81;4132850;28;20623;-84
2022/05/04 09:33:11;;;;;;;18.37;16.53;;;;;;;20.83;81.35;98167.75;4138277;28;20626;-84
2022/05/04 09:35:15;;;;;;;18.90;16.77;;;;;;;20.91;78.52;98171.25;4117982;28;20631;-85
2022/05/04 09:44:55;;;;;;;25.20;22.70;;;;;;;20.42;77.11;98167.88;4134586;28;20618;-84
2022/05/04 09:46:58;;;;;;;18.03;16.27;;;;;;;20.21;76.47;98167.50;4136832;28;23753;-85
2022/05/04 09:49:09;;;;;;;17.60;16.00;;;;;;;20.26;79.32;98167.00;4139575;28;20634;-85
2022/05/04 09:51:13;;;;;;;18.07;16.27;;;;;;;20.63;77.52;98162.94;4135307;28;20749;-85
2022/05/04 09:53:27;;;;;;;19.30;15.87;;;;;;;21.05;77.43;98169.72;4136921;28;20631;-85
2022/05/04 09:55:32;;;;;;;18.57;16.53;;;;;;;21.27;76.37;98154.78;4136261;28;20709;-84
2022/05/04 09:57:35;;;;;;;18.33;16.33;;;;;;;21.21;76.91;98154.63;4131823;28;20668;-84
2022/05/04 09:59:39;;;;;;;19.60;17.00;;;;;;;21.05;75.46;98159.09;4121481;28;24556;-84
2022/05/04 10:01:42;;;;;;;18.37;16.30;;;;;;;21.01;73.68;98155.97;4130820;28;20663;-84
2022/05/04 10:03:50;;;;;;;17.97;16.17;;;;;;;21.22;77.43;98150.16;4136758;28;20734;-85